createdAt,value
2023-03-02T07:19:09.590Z,4.17
2023-03-02T07:30:19.093Z,4.56
2023-03-02T07:41:31.900Z,4.85
2023-03-02T07:52:40.313Z,5.05
2023-03-02T08:03:50.818Z,5.05
2023-03-02T08:15:05.111Z,5.05
2023-03-02T08:25:49.838Z,5.54
2023-03-02T08:36:52.991Z,5.93
2023-03-02T08:47:55.918Z,6.52
2023-03-02T08:58:57.932Z,6.81
2023-03-02T09:09:59.327Z,6.91
2023-03-02T09:21:00.468Z,7.20
2023-03-02T09:32:02.529Z,7.49
2023-03-02T09:43:04.852Z,7.89
2023-03-02T09:54:07.108Z,7.40
2023-03-02T10:05:09.074Z,7.89
2023-03-02T10:16:05.982Z,7.79
2023-03-02T10:27:05.287Z,7.69
2023-03-02T10:38:02.833Z,7.40
2023-03-02T10:49:03.013Z,7.59
2023-03-02T11:00:04.432Z,8.18
2023-03-02T11:11:00.638Z,8.67
2023-03-02T11:22:02.062Z,8.57
2023-03-02T11:33:02.706Z,8.47
2023-03-02T11:44:00.990Z,8.28
2023-03-02T11:55:01.612Z,8.28
2023-03-02T12:06:04.557Z,8.08
2023-03-02T12:17:00.003Z,8.18
2023-03-02T12:27:56.780Z,8.08
2023-03-02T12:38:50.697Z,8.38
2023-03-02T12:49:28.380Z,8.47
2023-03-02T13:00:14.493Z,9.06
2023-03-02T13:10:50.244Z,9.06
2023-03-02T13:21:34.843Z,9.06
2023-03-02T13:32:35.156Z,8.67
2023-03-02T13:43:34.294Z,8.96
2023-03-02T13:54:24.721Z,8.86
2023-03-02T14:05:23.689Z,8.76
2023-03-02T14:15:58.608Z,8.96
2023-03-02T14:26:57.034Z,8.67
2023-03-02T14:37:54.357Z,8.57
2023-03-02T14:48:49.259Z,8.67
2023-03-02T14:59:43.829Z,8.47
2023-03-02T15:10:43.126Z,8.37
2023-03-02T15:21:40.622Z,8.08
2023-03-02T15:32:37.724Z,8.08
2023-03-02T15:43:38.732Z,8.08
2023-03-02T15:54:33.109Z,7.89
2023-03-02T16:16:15.519Z,7.49
2023-03-02T16:27:05.142Z,7.20
2023-03-02T16:37:56.849Z,7.10
2023-03-02T16:48:54.357Z,6.81
2023-03-02T17:10:50.196Z,6.42
2023-03-02T17:21:43.318Z,6.42
2023-03-02T17:32:20.881Z,6.32
2023-03-02T17:43:03.924Z,6.22
2023-03-02T17:53:59.321Z,6.13
2023-03-02T18:04:48.110Z,6.13
2023-03-02T18:15:35.319Z,5.93
2023-03-02T18:26:23.616Z,5.83
2023-03-02T18:37:11.850Z,5.83
2023-03-02T18:48:04.865Z,5.73
2023-03-02T19:09:51.508Z,5.54
2023-03-02T19:20:45.009Z,5.54
2023-03-02T19:31:32.814Z,5.44
2023-03-02T19:42:21.335Z,5.44
2023-03-02T19:53:16.904Z,5.44
2023-03-02T20:04:10.358Z,5.34
2023-03-02T20:15:09.054Z,5.25
2023-03-02T20:25:58.025Z,5.24
2023-03-02T20:36:58.074Z,5.24
2023-03-02T20:48:05.379Z,5.15
2023-03-02T20:59:06.632Z,5.05
2023-03-02T21:09:58.594Z,4.95
2023-03-02T21:20:49.150Z,4.95
2023-03-02T21:32:14.734Z,4.95
2023-03-02T21:43:23.162Z,4.85
2023-03-02T21:55:03.969Z,4.75
2023-03-02T22:06:03.272Z,4.76
